sensor_id;sensor_type;location;lat;lon;timestamp;pressure;altitude;pressure_sealevel;temperature;humidity
81299;BME280;70766;53.170;18.160;2023-08-01T00:01:00;100013.67;;;18.79;86.79
81299;BME280;70766;53.170;18.160;2023-08-01T00:03:29;100013.41;;;18.78;87.00
81299;BME280;70766;53.170;18.160;2023-08-01T00:05:57;100007.23;;;18.77;86.48
81299;BME280;70766;53.170;18.160;2023-08-01T00:08:26;100006.08;;;18.78;87.13
81299;BME280;70766;53.170;18.160;2023-08-01T00:10:54;99999.95;;;18.76;86.25
81299;BME280;70766;53.170;18.160;2023-08-01T00:13:22;99996.46;;;18.77;86.83
81299;BME280;70766;53.170;18.160;2023-08-01T00:15:49;99993.05;;;18.76;86.32
81299;BME280;70766;53.170;18.160;2023-08-01T00:18:34;99989.88;;;18.73;86.77
81299;BME280;70766;53.170;18.160;2023-08-01T00:21:03;99985.52;;;18.71;87.00
81299;BME280;70766;53.170;18.160;2023-08-01T00:23:33;99978.52;;;18.67;86.67
81299;BME280;70766;53.170;18.160;2023-08-01T00:26:01;99974.91;;;18.62;86.82
81299;BME280;70766;53.170;18.160;2023-08-01T00:28:30;99973.16;;;18.59;87.56
81299;BME280;70766;53.170;18.160;2023-08-01T00:31:06;99968.55;;;18.55;87.43
81299;BME280;70766;53.170;18.160;2023-08-01T00:33:36;99972.45;;;18.49;87.86
81299;BME280;70766;53.170;18.160;2023-08-01T00:36:05;99964.51;;;18.42;88.40
81299;BME280;70766;53.170;18.160;2023-08-01T00:38:37;99963.80;;;18.37;89.01
81299;BME280;70766;53.170;18.160;2023-08-01T00:41:05;99958.75;;;18.32;89.33
81299;BME280;70766;53.170;18.160;2023-08-01T00:43:34;99956.92;;;18.28;90.07
81299;BME280;70766;53.170;18.160;2023-08-01T00:46:03;99957.31;;;18.24;90.44
81299;BME280;70766;53.170;18.160;2023-08-01T00:48:33;99955.41;;;18.20;91.74
81299;BME280;70766;53.170;18.160;2023-08-01T00:51:05;99947.36;;;18.17;92.10
81299;BME280;70766;53.170;18.160;2023-08-01T00:53:35;99942.89;;;18.15;92.47
81299;BME280;70766;53.170;18.160;2023-08-01T00:56:03;99948.08;;;18.13;93.05
81299;BME280;70766;53.170;18.160;2023-08-01T00:58:31;99940.77;;;18.12;93.58
81299;BME280;70766;53.170;18.160;2023-08-01T01:00:59;99940.28;;;18.11;93.81
81299;BME280;70766;53.170;18.160;2023-08-01T01:03:29;99932.92;;;18.13;94.68
81299;BME280;70766;53.170;18.160;2023-08-01T01:06:02;99925.70;;;18.13;95.20
81299;BME280;70766;53.170;18.160;2023-08-01T01:08:32;99921.19;;;18.12;95.44
81299;BME280;70766;53.170;18.160;2023-08-01T01:11:00;99915.01;;;18.12;96.58
81299;BME280;70766;53.170;18.160;2023-08-01T01:13:29;99908.56;;;18.10;96.57
81299;BME280;70766;53.170;18.160;2023-08-01T01:15:57;99907.21;;;18.10;96.75
81299;BME280;70766;53.170;18.160;2023-08-01T01:18:25;99906.06;;;18.08;97.04
81299;BME280;70766;53.170;18.160;2023-08-01T01:20:53;99908.51;;;18.03;97.45
81299;BME280;70766;53.170;18.160;2023-08-01T01:23:21;99901.46;;;17.99;97.97
81299;BME280;70766;53.170;18.160;2023-08-01T01:25:51;99901.86;;;17.94;98.82
81299;BME280;70766;53.170;18.160;2023-08-01T01:28:20;99894.77;;;17.89;99.46
81299;BME280;70766;53.170;18.160;2023-08-01T01:30:49;99894.77;;;17.85;100.00
81299;BME280;70766;53.170;18.160;2023-08-01T01:33:17;99892.46;;;17.83;100.00
81299;BME280;70766;53.170;18.160;2023-08-01T01:35:46;99888.70;;;17.80;100.00
81299;BME280;70766;53.170;18.160;2023-08-01T01:38:15;99884.01;;;17.78;100.00
81299;BME280;70766;53.170;18.160;2023-08-01T01:40:43;99882.95;;;17.76;100.00
81299;BME280;70766;53.170;18.160;2023-08-01T01:43:11;99879.21;;;17.75;100.00
81299;BME280;70766;53.170;18.160;2023-08-01T01:45:39;99872.16;;;17.74;100.00
81299;BME280;70766;53.170;18.160;2023-08-01T01:48:07;99871.96;;;17.74;100.00
81299;BME280;70766;53.170;18.160;2023-08-01T01:50:35;99869.73;;;17.74;100.00
81299;BME280;70766;53.170;18.160;2023-08-01T01:53:04;99861.91;;;17.75;100.00
81299;BME280;70766;53.170;18.160;2023-08-01T01:55:32;99858.89;;;17.77;100.00
81299;BME280;70766;53.170;18.160;2023-08-01T01:58:00;99855.30;;;17.77;100.00
81299;BME280;70766;53.170;18.160;2023-08-01T02:00:29;99860.98;;;17.79;100.00
81299;BME280;70766;53.170;18.160;2023-08-01T02:02:57;99858.85;;;17.80;100.00
81299;BME280;70766;53.170;18.160;2023-08-01T02:05:25;99856.02;;;17.80;100.00
81299;BME280;70766;53.170;18.160;2023-08-01T02:07:53;99852.54;;;17.81;100.00
81299;BME280;70766;53.170;18.160;2023-08-01T02:10:21;99845.04;;;17.81;100.00
81299;BME280;70766;53.170;18.160;2023-08-01T02:12:49;99838.19;;;17.82;100.00
81299;BME280;70766;53.170;18.160;2023-08-01T02:15:17;99831.11;;;17.83;100.00
81299;BME280;70766;53.170;18.160;2023-08-01T02:17:46;99827.09;;;17.84;100.00
81299;BME280;70766;53.170;18.160;2023-08-01T02:20:14;99825.14;;;17.83;100.00
81299;BME280;70766;53.170;18.160;2023-08-01T02:22:42;99823.26;;;17.82;100.00
81299;BME280;70766;53.170;18.160;2023-08-01T02:25:11;99821.27;;;17.80;100.00
81299;BME280;70766;53.170;18.160;2023-08-01T02:27:39;99814.12;;;17.76;100.00
81299;BME280;70766;53.170;18.160;2023-08-01T02:30:07;99813.05;;;17.74;100.00
81299;BME280;70766;53.170;18.160;2023-08-01T02:32:36;99812.06;;;17.72;100.00
81299;BME280;70766;53.170;18.160;2023-08-01T02:35:04;99805.23;;;17.72;100.00
81299;BME280;70766;53.170;18.160;2023-08-01T02:37:32;99797.45;;;17.73;100.00
81299;BME280;70766;53.170;18.160;2023-08-01T02:40:05;99790.66;;;17.73;100.00
81299;BME280;70766;53.170;18.160;2023-08-01T02:42:35;99790.39;;;17.73;100.00
81299;BME280;70766;53.170;18.160;2023-08-01T02:45:04;99787.81;;;17.75;100.00
81299;BME280;70766;53.170;18.160;2023-08-01T02:47:32;99787.59;;;17.75;100.00
81299;BME280;70766;53.170;18.160;2023-08-01T02:50:00;99781.08;;;17.75;100.00
81299;BME280;70766;53.170;18.160;2023-08-01T02:52:29;99777.98;;;17.75;100.00
81299;BME280;70766;53.170;18.160;2023-08-01T02:54:58;99771.08;;;17.75;100.00
81299;BME280;70766;53.170;18.160;2023-08-01T02:57:26;99770.11;;;17.74;100.00
81299;BME280;70766;53.170;18.160;2023-08-01T02:59:54;99771.42;;;17.74;100.00
81299;BME280;70766;53.170;18.160;2023-08-01T03:02:22;99776.63;;;17.75;100.00
81299;BME280;70766;53.170;18.160;2023-08-01T03:04:50;99776.73;;;17.75;100.00
81299;BME280;70766;53.170;18.160;2023-08-01T03:07:18;99779.31;;;17.76;100.00
81299;BME280;70766;53.170;18.160;2023-08-01T03:09:47;99777.95;;;17.78;100.00
81299;BME280;70766;53.170;18.160;2023-08-01T03:12:15;99773.20;;;17.79;100.00
81299;BME280;70766;53.170;18.160;2023-08-01T03:14:43;99770.10;;;17.79;100.00
81299;BME280;70766;53.170;18.160;2023-08-01T03:17:12;99770.64;;;17.79;100.00
81299;BME280;70766;53.170;18.160;2023-08-01T03:19:40;99770.81;;;17.78;100.00
81299;BME280;70766;53.170;18.160;2023-08-01T03:22:09;99767.64;;;17.77;100.00
81299;BME280;70766;53.170;18.160;2023-08-01T03:24:38;99768.07;;;17.77;100.00
81299;BME280;70766;53.170;18.160;2023-08-01T03:27:07;99762.70;;;17.76;100.00
81299;BME280;70766;53.170;18.160;2023-08-01T03:29:34;99761.73;;;17.76;100.00
81299;BME280;70766;53.170;18.160;2023-08-01T03:32:03;99761.36;;;17.76;100.00
81299;BME280;70766;53.170;18.160;2023-08-01T03:34:31;99756.59;;;17.75;100.00
81299;BME280;70766;53.170;18.160;2023-08-01T03:36:59;99754.10;;;17.75;100.00
81299;BME280;70766;53.170;18.160;2023-08-01T03:39:27;99750.40;;;17.75;100.00
81299;BME280;70766;53.170;18.160;2023-08-01T03:41:55;99746.75;;;17.76;100.00
81299;BME280;70766;53.170;18.160;2023-08-01T03:44:24;99748.90;;;17.77;100.00
81299;BME280;70766;53.170;18.160;2023-08-01T03:46:52;99745.29;;;17.79;100.00
81299;BME280;70766;53.170;18.160;2023-08-01T03:49:21;99742.98;;;17.81;100.00
81299;BME280;70766;53.170;18.160;2023-08-01T03:51:50;99739.20;;;17.83;100.00
81299;BME280;70766;53.170;18.160;2023-08-01T03:54:18;99736.70;;;17.86;100.00
81299;BME280;70766;53.170;18.160;2023-08-01T03:56:46;99736.38;;;17.90;100.00
81299;BME280;70766;53.170;18.160;2023-08-01T03:59:15;99735.45;;;17.92;100.00
81299;BME280;70766;53.170;18.160;2023-08-01T04:01:44;99735.73;;;17.93;100.00
81299;BME280;70766;53.170;18.160;2023-08-01T04:04:12;99728.85;;;17.92;100.00
81299;BME280;70766;53.170;18.160;2023-08-01T04:06:40;99728.82;;;17.90;100.00
81299;BME280;70766;53.170;18.160;2023-08-01T04:09:08;99727.47;;;17.87;100.00
81299;BME280;70766;53.170;18.160;2023-08-01T04:11:36;99727.78;;;17.85;100.00
81299;BME280;70766;53.170;18.160;2023-08-01T04:14:05;99727.55;;;17.82;100.00
81299;BME280;70766;53.170;18.160;2023-08-01T04:16:33;99721.95;;;17.79;100.00
81299;BME280;70766;53.170;18.160;2023-08-01T04:19:01;99727.48;;;17.76;100.00
81299;BME280;70766;53.170;18.160;2023-08-01T04:21:29;99728.50;;;17.71;100.00
81299;BME280;70766;53.170;18.160;2023-08-01T04:23:57;99726.31;;;17.64;100.00
81299;BME280;70766;53.170;18.160;2023-08-01T04:26:25;99724.90;;;17.62;100.00
81299;BME280;70766;53.170;18.160;2023-08-01T04:28:53;99720.48;;;17.60;100.00
81299;BME280;70766;53.170;18.160;2023-08-01T04:31:21;99719.98;;;17.61;100.00
81299;BME280;70766;53.170;18.160;2023-08-01T04:33:50;99716.28;;;17.61;100.00
81299;BME280;70766;53.170;18.160;2023-08-01T04:36:18;99716.73;;;17.61;100.00
81299;BME280;70766;53.170;18.160;2023-08-01T04:38:46;99710.54;;;17.60;100.00
81299;BME280;70766;53.170;18.160;2023-08-01T04:41:14;99716.05;;;17.62;100.00
81299;BME280;70766;53.170;18.160;2023-08-01T04:43:42;99709.88;;;17.62;100.00
81299;BME280;70766;53.170;18.160;2023-08-01T04:46:10;99713.29;;;17.62;100.00
81299;BME280;70766;53.170;18.160;2023-08-01T04:48:42;99708.25;;;17.60;100.00
81299;BME280;70766;53.170;18.160;2023-08-01T04:51:10;99703.79;;;17.59;100.00
81299;BME280;70766;53.170;18.160;2023-08-01T04:53:38;99704.20;;;17.56;100.00
81299;BME280;70766;53.170;18.160;2023-08-01T04:56:06;99709.04;;;17.56;100.00
81299;BME280;70766;53.170;18.160;2023-08-01T04:58:34;99708.67;;;17.55;100.00
81299;BME280;70766;53.170;18.160;2023-08-01T05:01:02;99706.34;;;17.55;100.00
81299;BME280;70766;53.170;18.160;2023-08-01T05:03:31;99709.95;;;17.52;100.00
81299;BME280;70766;53.170;18.160;2023-08-01T05:06:00;99702.91;;;17.48;100.00
81299;BME280;70766;53.170;18.160;2023-08-01T05:08:28;99706.31;;;17.47;100.00
81299;BME280;70766;53.170;18.160;2023-08-01T05:10:57;99705.27;;;17.46;100.00
81299;BME280;70766;53.170;18.160;2023-08-01T05:13:26;99707.09;;;17.44;100.00
81299;BME280;70766;53.170;18.160;2023-08-01T05:15:54;99703.02;;;17.43;100.00
81299;BME280;70766;53.170;18.160;2023-08-01T05:18:22;99703.15;;;17.41;100.00
81299;BME280;70766;53.170;18.160;2023-08-01T05:20:50;99706.91;;;17.41;100.00
81299;BME280;70766;53.170;18.160;2023-08-01T05:23:18;99705.73;;;17.40;100.00
81299;BME280;70766;53.170;18.160;2023-08-01T05:25:46;99706.63;;;17.37;100.00
81299;BME280;70766;53.170;18.160;2023-08-01T05:28:14;99700.84;;;17.33;100.00
81299;BME280;70766;53.170;18.160;2023-08-01T05:30:44;99697.09;;;17.28;100.00
81299;BME280;70766;53.170;18.160;2023-08-01T05:33:13;99695.66;;;17.23;100.00
81299;BME280;70766;53.170;18.160;2023-08-01T05:35:41;99692.16;;;17.17;100.00
81299;BME280;70766;53.170;18.160;2023-08-01T05:38:09;99687.40;;;17.17;100.00
81299;BME280;70766;53.170;18.160;2023-08-01T05:40:37;99688.09;;;17.14;100.00
81299;BME280;70766;53.170;18.160;2023-08-01T05:43:05;99690.61;;;17.12;100.00
81299;BME280;70766;53.170;18.160;2023-08-01T05:45:36;99688.14;;;17.08;100.00
81299;BME280;70766;53.170;18.160;2023-08-01T05:48:04;99686.94;;;17.03;100.00
81299;BME280;70766;53.170;18.160;2023-08-01T05:50:32;99686.70;;;16.98;100.00
81299;BME280;70766;53.170;18.160;2023-08-01T05:53:00;99681.23;;;16.94;100.00
81299;BME280;70766;53.170;18.160;2023-08-01T05:55:28;99677.84;;;16.96;100.00
81299;BME280;70766;53.170;18.160;2023-08-01T05:57:56;99680.98;;;16.96;100.00
81299;BME280;70766;53.170;18.160;2023-08-01T06:00:25;99684.62;;;16.96;100.00
81299;BME280;70766;53.170;18.160;2023-08-01T06:02:53;99680.88;;;16.95;100.00
81299;BME280;70766;53.170;18.160;2023-08-01T06:05:22;99671.60;;;16.89;100.00
81299;BME280;70766;53.170;18.160;2023-08-01T06:07:50;99673.46;;;16.87;100.00
81299;BME280;70766;53.170;18.160;2023-08-01T06:10:18;99672.20;;;16.84;100.00
81299;BME280;70766;53.170;18.160;2023-08-01T06:12:47;99667.45;;;16.83;100.00
81299;BME280;70766;53.170;18.160;2023-08-01T06:15:15;99667.54;;;16.81;100.00
81299;BME280;70766;53.170;18.160;2023-08-01T06:17:43;99663.25;;;16.80;100.00
81299;BME280;70766;53.170;18.160;2023-08-01T06:20:11;99668.95;;;16.76;100.00
81299;BME280;70766;53.170;18.160;2023-08-01T06:22:42;99671.06;;;16.72;100.00
81299;BME280;70766;53.170;18.160;2023-08-01T06:25:10;99667.90;;;16.69;100.00
81299;BME280;70766;53.170;18.160;2023-08-01T06:27:38;99673.57;;;16.67;100.00
81299;BME280;70766;53.170;18.160;2023-08-01T06:30:07;99664.55;;;16.64;100.00
81299;BME280;70766;53.170;18.160;2023-08-01T06:32:35;99663.64;;;16.68;100.00
81299;BME280;70766;53.170;18.160;2023-08-01T06:35:03;99656.86;;;16.71;100.00
81299;BME280;70766;53.170;18.160;2023-08-01T06:37:31;99659.11;;;16.73;100.00
81299;BME280;70766;53.170;18.160;2023-08-01T06:40:01;99655.27;;;16.73;100.00
81299;BME280;70766;53.170;18.160;2023-08-01T06:42:30;99652.24;;;16.73;100.00
81299;BME280;70766;53.170;18.160;2023-08-01T06:44:59;99652.86;;;16.75;100.00
81299;BME280;70766;53.170;18.160;2023-08-01T06:47:27;99648.46;;;16.80;100.00
81299;BME280;70766;53.170;18.160;2023-08-01T06:49:56;99652.81;;;16.83;100.00
81299;BME280;70766;53.170;18.160;2023-08-01T06:52:24;99650.95;;;16.83;100.00
81299;BME280;70766;53.170;18.160;2023-08-01T06:54:52;99651.80;;;16.84;100.00
81299;BME280;70766;53.170;18.160;2023-08-01T06:57:20;99646.63;;;16.88;100.00
81299;BME280;70766;53.170;18.160;2023-08-01T06:59:48;99643.84;;;16.93;100.00
81299;BME280;70766;53.170;18.160;2023-08-01T07:02:16;99643.34;;;17.05;100.00
81299;BME280;70766;53.170;18.160;2023-08-01T07:04:44;99641.05;;;17.19;100.00
81299;BME280;70766;53.170;18.160;2023-08-01T07:07:12;99643.89;;;17.28;100.00
81299;BME280;70766;53.170;18.160;2023-08-01T07:09:40;99636.90;;;17.42;100.00
81299;BME280;70766;53.170;18.160;2023-08-01T07:12:08;99634.23;;;17.54;100.00
81299;BME280;70766;53.170;18.160;2023-08-01T07:14:36;99628.86;;;17.69;100.00
81299;BME280;70766;53.170;18.160;2023-08-01T07:17:04;99627.51;;;17.87;100.00
81299;BME280;70766;53.170;18.160;2023-08-01T07:19:32;99627.73;;;17.95;100.00
81299;BME280;70766;53.170;18.160;2023-08-01T07:22:00;99622.36;;;18.01;100.00
81299;BME280;70766;53.170;18.160;2023-08-01T07:24:28;99619.58;;;18.07;100.00
81299;BME280;70766;53.170;18.160;2023-08-01T07:27:01;99614.39;;;18.14;100.00
81299;BME280;70766;53.170;18.160;2023-08-01T07:29:30;99612.89;;;18.32;100.00
81299;BME280;70766;53.170;18.160;2023-08-01T07:31:58;99615.10;;;18.45;100.00
81299;BME280;70766;53.170;18.160;2023-08-01T07:34:26;99608.98;;;18.56;100.00
81299;BME280;70766;53.170;18.160;2023-08-01T07:36:54;99606.05;;;18.65;100.00
81299;BME280;70766;53.170;18.160;2023-08-01T07:39:22;99602.09;;;18.66;100.00
81299;BME280;70766;53.170;18.160;2023-08-01T07:41:50;99603.17;;;18.56;100.00
81299;BME280;70766;53.170;18.160;2023-08-01T07:44:18;99603.39;;;18.44;100.00
81299;BME280;70766;53.170;18.160;2023-08-01T07:46:46;99600.40;;;18.27;100.00
81299;BME280;70766;53.170;18.160;2023-08-01T07:49:14;99600.35;;;18.13;100.00
81299;BME280;70766;53.170;18.160;2023-08-01T07:51:42;99601.18;;;18.04;100.00
81299;BME280;70766;53.170;18.160;2023-08-01T07:54:10;99599.96;;;18.06;100.00
81299;BME280;70766;53.170;18.160;2023-08-01T07:56:38;99597.66;;;18.09;100.00
81299;BME280;70766;53.170;18.160;2023-08-01T07:59:07;99593.75;;;18.08;100.00
81299;BME280;70766;53.170;18.160;2023-08-01T08:01:35;99591.91;;;18.09;100.00
81299;BME280;70766;53.170;18.160;2023-08-01T08:04:04;99591.59;;;18.06;100.00
81299;BME280;70766;53.170;18.160;2023-08-01T08:06:32;99590.68;;;17.97;100.00
81299;BME280;70766;53.170;18.160;2023-08-01T08:09:00;99591.30;;;17.93;100.00
81299;BME280;70766;53.170;18.160;2023-08-01T08:11:28;99588.36;;;17.96;100.00
81299;BME280;70766;53.170;18.160;2023-08-01T08:13:59;99589.44;;;17.97;100.00
81299;BME280;70766;53.170;18.160;2023-08-01T08:16:29;99583.77;;;18.01;100.00
81299;BME280;70766;53.170;18.160;2023-08-01T08:18:57;99588.67;;;18.05;100.00
81299;BME280;70766;53.170;18.160;2023-08-01T08:21:26;99585.30;;;18.18;100.00
81299;BME280;70766;53.170;18.160;2023-08-01T08:23:55;99584.19;;;18.23;100.00
81299;BME280;70766;53.170;18.160;2023-08-01T08:26:25;99584.23;;;18.32;100.00
81299;BME280;70766;53.170;18.160;2023-08-01T08:28:56;99578.98;;;18.47;100.00
81299;BME280;70766;53.170;18.160;2023-08-01T08:31:25;99575.31;;;18.55;100.00
81299;BME280;70766;53.170;18.160;2023-08-01T08:33:55;99577.89;;;18.57;100.00
81299;BME280;70766;53.170;18.160;2023-08-01T08:36:25;99578.73;;;18.55;100.00
81299;BME280;70766;53.170;18.160;2023-08-01T08:38:53;99573.55;;;18.54;100.00
81299;BME280;70766;53.170;18.160;2023-08-01T08:41:26;99571.60;;;18.51;100.00
81299;BME280;70766;53.170;18.160;2023-08-01T08:43:56;99569.17;;;18.55;100.00
81299;BME280;70766;53.170;18.160;2023-08-01T08:46:28;99567.34;;;18.60;100.00
81299;BME280;70766;53.170;18.160;2023-08-01T08:48:57;99568.30;;;18.53;100.00
81299;BME280;70766;53.170;18.160;2023-08-01T08:51:28;99566.04;;;18.39;100.00
81299;BME280;70766;53.170;18.160;2023-08-01T08:53:56;99561.91;;;18.49;100.00
81299;BME280;70766;53.170;18.160;2023-08-01T08:56:29;99561.45;;;18.57;100.00
81299;BME280;70766;53.170;18.160;2023-08-01T08:58:57;99558.96;;;18.64;100.00
81299;BME280;70766;53.170;18.160;2023-08-01T09:01:26;99553.66;;;18.59;100.00
81299;BME280;70766;53.170;18.160;2023-08-01T09:03:55;99553.76;;;18.64;100.00
81299;BME280;70766;53.170;18.160;2023-08-01T09:06:37;99550.08;;;18.68;100.00
81299;BME280;70766;53.170;18.160;2023-08-01T09:09:13;99544.65;;;18.77;100.00
81299;BME280;70766;53.170;18.160;2023-08-01T09:11:49;99539.95;;;19.02;100.00
81299;BME280;70766;53.170;18.160;2023-08-01T09:14:19;99535.70;;;19.32;100.00
81299;BME280;70766;53.170;18.160;2023-08-01T09:16:47;99533.27;;;19.46;100.00
81299;BME280;70766;53.170;18.160;2023-08-01T09:19:17;99529.14;;;19.33;100.00
81299;BME280;70766;53.170;18.160;2023-08-01T09:21:46;99517.34;;;19.33;100.00
81299;BME280;70766;53.170;18.160;2023-08-01T09:24:19;99514.64;;;19.59;100.00
81299;BME280;70766;53.170;18.160;2023-08-01T09:26:49;99511.92;;;19.88;100.00
81299;BME280;70766;53.170;18.160;2023-08-01T09:29:18;99506.38;;;20.18;100.00
81299;BME280;70766;53.170;18.160;2023-08-01T09:31:46;99507.11;;;20.45;100.00
81299;BME280;70766;53.170;18.160;2023-08-01T09:34:20;99507.50;;;20.73;100.00
81299;BME280;70766;53.170;18.160;2023-08-01T09:36:50;99497.30;;;21.06;100.00
81299;BME280;70766;53.170;18.160;2023-08-01T09:39:20;99497.36;;;21.23;100.00
81299;BME280;70766;53.170;18.160;2023-08-01T09:41:59;99501.39;;;21.49;100.00
81299;BME280;70766;53.170;18.160;2023-08-01T09:44:29;99496.19;;;21.73;100.00
81299;BME280;70766;53.170;18.160;2023-08-01T09:47:03;99491.45;;;21.68;100.00
81299;BME280;70766;53.170;18.160;2023-08-01T09:49:32;99485.65;;;21.50;100.00
81299;BME280;70766;53.170;18.160;2023-08-01T09:52:00;99486.09;;;21.54;100.00
81299;BME280;70766;53.170;18.160;2023-08-01T09:54:29;99486.23;;;21.27;100.00
81299;BME280;70766;53.170;18.160;2023-08-01T09:56:57;99479.12;;;21.44;100.00
81299;BME280;70766;53.170;18.160;2023-08-01T09:59:26;99479.33;;;21.38;100.00
81299;BME280;70766;53.170;18.160;2023-08-01T10:01:54;99476.65;;;21.11;100.00
81299;BME280;70766;53.170;18.160;2023-08-01T10:04:33;99469.85;;;21.07;100.00
81299;BME280;70766;53.170;18.160;2023-08-01T10:07:08;99467.11;;;21.18;100.00
81299;BME280;70766;53.170;18.160;2023-08-01T10:09:40;99464.09;;;21.50;100.00
81299;BME280;70766;53.170;18.160;2023-08-01T10:12:09;99459.48;;;21.63;100.00
81299;BME280;70766;53.170;18.160;2023-08-01T10:14:43;99460.23;;;21.62;100.00
81299;BME280;70766;53.170;18.160;2023-08-01T10:17:15;99456.52;;;21.76;100.00
81299;BME280;70766;53.170;18.160;2023-08-01T10:19:46;99455.31;;;21.53;100.00
81299;BME280;70766;53.170;18.160;2023-08-01T10:22:20;99457.16;;;21.15;100.00
81299;BME280;70766;53.170;18.160;2023-08-01T10:24:49;99454.88;;;20.81;100.00
81299;BME280;70766;53.170;18.160;2023-08-01T10:27:21;99452.53;;;20.58;100.00
81299;BME280;70766;53.170;18.160;2023-08-01T10:29:59;99456.44;;;20.45;100.00
81299;BME280;70766;53.170;18.160;2023-08-01T10:32:32;99460.61;;;20.41;100.00
81299;BME280;70766;53.170;18.160;2023-08-01T10:35:01;99456.47;;;20.48;100.00
81299;BME280;70766;53.170;18.160;2023-08-01T10:37:41;99452.30;;;20.47;100.00
81299;BME280;70766;53.170;18.160;2023-08-01T10:40:10;99452.08;;;20.37;100.00
81299;BME280;70766;53.170;18.160;2023-08-01T10:42:44;99446.27;;;20.36;100.00
81299;BME280;70766;53.170;18.160;2023-08-01T10:45:20;99444.51;;;20.50;100.00
81299;BME280;70766;53.170;18.160;2023-08-01T10:47:50;99433.52;;;20.83;100.00
81299;BME280;70766;53.170;18.160;2023-08-01T10:50:18;99433.54;;;21.08;100.00
81299;BME280;70766;53.170;18.160;2023-08-01T10:52:47;99424.81;;;21.51;100.00
81299;BME280;70766;53.170;18.160;2023-08-01T10:55:15;99419.77;;;21.84;100.00
81299;BME280;70766;53.170;18.160;2023-08-01T10:57:49;99411.98;;;22.12;100.00
81299;BME280;70766;53.170;18.160;2023-08-01T11:00:18;99405.65;;;22.39;100.00
81299;BME280;70766;53.170;18.160;2023-08-01T11:02:49;99405.48;;;22.39;100.00
81299;BME280;70766;53.170;18.160;2023-08-01T11:05:18;99401.41;;;22.07;100.00
81299;BME280;70766;53.170;18.160;2023-08-01T11:07:54;99394.38;;;21.56;100.00
81299;BME280;70766;53.170;18.160;2023-08-01T11:10:26;99393.70;;;21.05;100.00
81299;BME280;70766;53.170;18.160;2023-08-01T11:12:56;99390.88;;;20.68;100.00
81299;BME280;70766;53.170;18.160;2023-08-01T11:15:25;99387.61;;;20.40;100.00
81299;BME280;70766;53.170;18.160;2023-08-01T11:17:54;99384.42;;;20.32;100.00
81299;BME280;70766;53.170;18.160;2023-08-01T11:20:24;99386.77;;;20.34;100.00
81299;BME280;70766;53.170;18.160;2023-08-01T11:22:58;99384.77;;;20.31;100.00
81299;BME280;70766;53.170;18.160;2023-08-01T11:25:37;99382.02;;;20.32;100.00
81299;BME280;70766;53.170;18.160;2023-08-01T11:28:11;99377.83;;;20.27;100.00
81299;BME280;70766;53.170;18.160;2023-08-01T11:30:40;99374.40;;;20.05;100.00
81299;BME280;70766;53.170;18.160;2023-08-01T11:33:22;99372.38;;;19.92;100.00
81299;BME280;70766;53.170;18.160;2023-08-01T11:35:52;99375.41;;;19.85;100.00
81299;BME280;70766;53.170;18.160;2023-08-01T11:38:23;99378.65;;;19.66;100.00
81299;BME280;70766;53.170;18.160;2023-08-01T11:40:51;99379.35;;;19.42;100.00
81299;BME280;70766;53.170;18.160;2023-08-01T11:43:20;99383.06;;;19.16;100.00
81299;BME280;70766;53.170;18.160;2023-08-01T11:45:56;99379.26;;;18.88;100.00
81299;BME280;70766;53.170;18.160;2023-08-01T11:48:24;99384.74;;;18.65;100.00
81299;BME280;70766;53.170;18.160;2023-08-01T11:50:59;99382.74;;;18.47;100.00
81299;BME280;70766;53.170;18.160;2023-08-01T11:53:29;99384.94;;;18.27;100.00
81299;BME280;70766;53.170;18.160;2023-08-01T11:55:58;99377.97;;;18.28;100.00
81299;BME280;70766;53.170;18.160;2023-08-01T11:58:30;99375.20;;;18.30;100.00
81299;BME280;70766;53.170;18.160;2023-08-01T12:01:12;99375.55;;;18.45;100.00
81299;BME280;70766;53.170;18.160;2023-08-01T12:03:53;99371.15;;;18.66;100.00
81299;BME280;70766;53.170;18.160;2023-08-01T12:06:23;99366.33;;;18.69;100.00
81299;BME280;70766;53.170;18.160;2023-08-01T12:08:52;99364.00;;;18.75;100.00
81299;BME280;70766;53.170;18.160;2023-08-01T12:11:25;99360.31;;;18.93;100.00
81299;BME280;70766;53.170;18.160;2023-08-01T12:14:15;99356.77;;;19.06;100.00
81299;BME280;70766;53.170;18.160;2023-08-01T12:16:46;99355.92;;;19.22;100.00
81299;BME280;70766;53.170;18.160;2023-08-01T12:19:18;99349.30;;;19.37;100.00
81299;BME280;70766;53.170;18.160;2023-08-01T12:21:49;99345.73;;;19.62;100.00
81299;BME280;70766;53.170;18.160;2023-08-01T12:24:18;99348.91;;;19.79;100.00
81299;BME280;70766;53.170;18.160;2023-08-01T12:26:47;99348.60;;;19.84;100.00
81299;BME280;70766;53.170;18.160;2023-08-01T12:29:15;99343.86;;;19.96;100.00
81299;BME280;70766;53.170;18.160;2023-08-01T12:31:43;99339.71;;;20.14;100.00
81299;BME280;70766;53.170;18.160;2023-08-01T12:34:12;99338.84;;;20.41;100.00
81299;BME280;70766;53.170;18.160;2023-08-01T12:36:40;99336.23;;;20.71;100.00
81299;BME280;70766;53.170;18.160;2023-08-01T12:39:09;99334.73;;;20.94;100.00
81299;BME280;70766;53.170;18.160;2023-08-01T12:41:39;99331.78;;;21.18;100.00
81299;BME280;70766;53.170;18.160;2023-08-01T12:44:07;99330.40;;;21.19;100.00
81299;BME280;70766;53.170;18.160;2023-08-01T12:46:35;99327.95;;;21.13;100.00
81299;BME280;70766;53.170;18.160;2023-08-01T12:49:22;99330.06;;;21.15;100.00
81299;BME280;70766;53.170;18.160;2023-08-01T12:51:55;99331.34;;;21.17;100.00